createdAt,value
2023-04-01T00:00:10.747Z,41.81
2023-04-01T00:01:10.168Z,41.81
2023-04-01T00:02:10.175Z,41.78
2023-04-01T00:03:10.227Z,41.80
2023-04-01T00:04:10.214Z,41.76
2023-04-01T00:05:10.181Z,41.75
2023-04-01T00:06:10.159Z,41.71
2023-04-01T00:07:10.160Z,41.70
2023-04-01T00:08:10.154Z,41.72
2023-04-01T00:09:10.136Z,41.69
2023-04-01T00:10:10.137Z,41.69
2023-04-01T00:11:10.126Z,41.65
2023-04-01T00:12:10.135Z,41.64
2023-04-01T00:13:10.122Z,41.63
2023-04-01T00:14:10.136Z,41.67
2023-04-01T00:15:10.206Z,41.63
2023-04-01T00:16:21.005Z,41.61
2023-04-01T00:17:11.119Z,41.62
2023-04-01T00:18:10.112Z,41.61
2023-04-01T00:19:10.102Z,41.62
2023-04-01T00:20:10.115Z,41.64
2023-04-01T00:21:10.113Z,41.61
2023-04-01T00:22:10.113Z,41.58
2023-04-01T00:23:10.104Z,41.61
2023-04-01T00:24:10.121Z,41.60
2023-04-01T00:25:10.120Z,41.55
2023-04-01T00:26:10.108Z,41.56
2023-04-01T00:27:10.113Z,41.59
2023-04-01T00:28:10.122Z,41.60
2023-04-01T00:29:10.120Z,41.53
2023-04-01T00:30:10.122Z,41.55
2023-04-01T00:31:10.171Z,41.56
2023-04-01T00:32:10.110Z,41.58
2023-04-01T00:33:10.126Z,41.55
2023-04-01T00:34:10.193Z,41.54
2023-04-01T00:35:10.124Z,41.51
2023-04-01T00:36:10.146Z,41.52
2023-04-01T00:37:10.120Z,41.52
2023-04-01T00:38:10.123Z,41.49
2023-04-01T00:39:10.124Z,41.50
2023-04-01T00:40:10.135Z,41.46
2023-04-01T00:41:10.120Z,41.49
2023-04-01T00:42:10.118Z,41.43
2023-04-01T00:43:10.116Z,41.47
2023-04-01T00:44:10.205Z,41.46
2023-04-01T00:45:10.109Z,41.42
2023-04-01T00:46:10.693Z,41.42
2023-04-01T00:47:10.147Z,41.37
2023-04-01T00:48:10.118Z,41.35
2023-04-01T00:49:10.697Z,41.32
2023-04-01T00:50:10.079Z,41.28
2023-04-01T00:51:10.079Z,41.27
2023-04-01T00:52:10.095Z,41.27
2023-04-01T00:53:10.103Z,41.26
2023-04-01T00:54:10.117Z,41.23
2023-04-01T00:55:10.135Z,41.22
2023-04-01T00:56:10.698Z,41.23
2023-04-01T00:57:10.173Z,41.26
2023-04-01T00:58:10.176Z,41.21
2023-04-01T00:59:10.189Z,41.21
2023-04-01T01:00:10.195Z,41.22
2023-04-01T01:01:10.254Z,41.22
2023-04-01T01:02:10.297Z,41.23
2023-04-01T01:03:10.240Z,41.22
2023-04-01T01:04:10.256Z,41.22
2023-04-01T01:05:10.289Z,41.23
2023-04-01T01:06:10.289Z,41.25
2023-04-01T01:07:10.314Z,41.17
2023-04-01T01:08:10.309Z,41.13
2023-04-01T01:09:10.341Z,41.11
2023-04-01T01:10:10.356Z,41.12
2023-04-01T01:11:10.429Z,41.06
2023-04-01T01:12:10.390Z,40.99
2023-04-01T01:13:10.403Z,41.01
2023-04-01T01:14:10.425Z,41.04
2023-04-01T01:15:10.433Z,40.98
2023-04-01T01:16:10.500Z,41.00
2023-04-01T01:17:10.517Z,41.02
2023-04-01T01:18:10.483Z,40.97
2023-04-01T01:19:10.496Z,40.98
2023-04-01T01:20:19.231Z,41.00
2023-04-01T01:21:11.484Z,40.97
2023-04-01T01:22:10.474Z,40.98
2023-04-01T01:23:10.507Z,41.00
2023-04-01T01:24:10.482Z,41.00
2023-04-01T01:25:10.468Z,40.97
2023-04-01T01:26:10.451Z,40.98
2023-04-01T01:27:10.445Z,41.02
2023-04-01T01:28:10.456Z,40.98
2023-04-01T01:29:10.497Z,41.00
2023-04-01T01:30:10.461Z,40.99
2023-04-01T01:31:10.485Z,40.99
2023-04-01T01:32:10.457Z,40.97
2023-04-01T01:33:10.471Z,41.02
2023-04-01T01:34:10.441Z,40.98
2023-04-01T01:35:10.434Z,40.94
2023-04-01T01:36:10.454Z,40.97
2023-04-01T01:37:10.434Z,40.97
2023-04-01T01:38:10.717Z,41.00
2023-04-01T01:39:10.421Z,40.92
2023-04-01T01:40:10.430Z,40.98
2023-04-01T01:41:10.452Z,40.97
2023-04-01T01:42:10.411Z,40.92
2023-04-01T01:43:10.440Z,40.92
2023-04-01T01:44:10.397Z,40.90
2023-04-01T01:45:10.414Z,40.89
2023-04-01T01:46:10.421Z,40.92
2023-04-01T01:47:10.477Z,40.91
2023-04-01T01:48:10.414Z,40.91
2023-04-01T01:49:10.388Z,40.92
2023-04-01T01:50:10.370Z,40.88
2023-04-01T01:51:10.375Z,40.89
2023-04-01T01:52:10.389Z,40.93
2023-04-01T01:53:10.395Z,40.89
2023-04-01T01:54:10.422Z,40.90
2023-04-01T01:55:10.435Z,40.90
2023-04-01T01:56:10.442Z,40.90
2023-04-01T01:57:10.529Z,40.85
2023-04-01T01:58:10.468Z,40.84
2023-04-01T01:59:10.487Z,40.82
2023-04-01T02:00:10.548Z,40.87
2023-04-01T02:01:10.643Z,40.83
2023-04-01T02:02:10.534Z,40.83
2023-04-01T02:03:10.568Z,40.84
2023-04-01T02:04:10.563Z,40.79
2023-04-01T02:05:10.579Z,40.84
2023-04-01T02:06:10.581Z,40.82
2023-04-01T02:07:10.601Z,40.81
2023-04-01T02:08:10.624Z,40.78
2023-04-01T02:09:10.648Z,40.77
2023-04-01T02:10:10.657Z,40.77
2023-04-01T02:11:10.670Z,40.74
2023-04-01T02:12:10.686Z,40.75
2023-04-01T02:13:10.696Z,40.79
2023-04-01T02:14:10.730Z,40.75
2023-04-01T02:15:10.738Z,40.76
2023-04-01T02:16:10.806Z,40.75
2023-04-01T02:17:10.770Z,40.73
2023-04-01T02:18:10.831Z,40.71
2023-04-01T02:19:10.786Z,40.74
2023-04-01T02:20:10.815Z,40.76
2023-04-01T02:21:10.806Z,40.72
2023-04-01T02:22:10.839Z,40.76
2023-04-01T02:23:10.911Z,40.72
2023-04-01T02:24:10.921Z,40.73
2023-04-01T02:25:10.884Z,40.74
2023-04-01T02:26:10.901Z,40.68
2023-04-01T02:27:10.934Z,40.73
2023-04-01T02:28:10.937Z,40.72
2023-04-01T02:29:10.939Z,40.71
2023-04-01T02:30:10.985Z,40.68
2023-04-01T02:31:11.010Z,40.72
2023-04-01T02:32:11.011Z,40.68
2023-04-01T02:33:11.110Z,40.63
2023-04-01T02:34:11.038Z,40.70
2023-04-01T02:35:11.063Z,40.64
2023-04-01T02:36:11.105Z,40.64
2023-04-01T02:37:11.091Z,40.66
2023-04-01T02:38:11.105Z,40.62
2023-04-01T02:39:11.120Z,40.64
2023-04-01T02:40:11.137Z,40.64
2023-04-01T02:41:11.142Z,40.58
2023-04-01T02:42:11.723Z,40.58
2023-04-01T02:43:11.172Z,40.62
2023-04-01T02:44:11.201Z,40.60
2023-04-01T02:45:11.226Z,40.62
2023-04-01T02:46:11.248Z,40.62
2023-04-01T02:47:11.265Z,40.58
2023-04-01T02:48:11.286Z,40.58
2023-04-01T02:49:11.308Z,40.56
2023-04-01T02:50:11.322Z,40.56
2023-04-01T02:51:11.335Z,40.56
2023-04-01T02:52:11.347Z,40.60
2023-04-01T02:53:11.423Z,40.53
2023-04-01T02:54:11.435Z,40.55
2023-04-01T02:55:11.374Z,40.56
2023-04-01T02:56:11.385Z,40.55
2023-04-01T02:57:11.422Z,40.52
2023-04-01T02:58:11.418Z,40.56
2023-04-01T02:59:11.743Z,40.50
2023-04-01T03:00:11.437Z,40.52
2023-04-01T03:01:11.506Z,40.48
2023-04-01T03:02:11.552Z,40.45
2023-04-01T03:03:11.542Z,40.47
2023-04-01T03:04:11.514Z,40.50
2023-04-01T03:05:11.530Z,40.51
2023-04-01T03:06:11.543Z,40.46
2023-04-01T03:07:11.563Z,40.48
2023-04-01T03:08:11.584Z,40.44
2023-04-01T03:09:11.623Z,40.44
2023-04-01T03:10:11.640Z,40.44
2023-04-01T03:11:11.646Z,40.41
2023-04-01T03:12:11.666Z,40.43
2023-04-01T03:13:11.677Z,40.35
2023-04-01T03:14:12.244Z,40.39
2023-04-01T03:15:11.785Z,40.34
2023-04-01T03:16:11.745Z,40.38
2023-04-01T03:17:12.243Z,40.35
2023-04-01T03:18:11.770Z,40.37
2023-04-01T03:19:11.759Z,40.37
2023-04-01T03:20:11.834Z,40.31
2023-04-01T03:21:11.789Z,40.36
2023-04-01T03:22:11.818Z,40.37
2023-04-01T03:23:11.825Z,40.31
2023-04-01T03:24:11.846Z,40.31
2023-04-01T03:25:11.866Z,40.32
2023-04-01T03:26:11.879Z,40.29
2023-04-01T03:27:12.736Z,40.23
2023-04-01T03:28:11.906Z,40.25
2023-04-01T03:29:11.924Z,40.28
2023-04-01T03:30:12.025Z,40.20
2023-04-01T03:31:12.080Z,40.24
2023-04-01T03:32:11.975Z,40.19
2023-04-01T03:33:11.996Z,40.23
2023-04-01T03:34:12.039Z,40.22
2023-04-01T03:35:12.061Z,40.19
2023-04-01T03:36:12.090Z,40.18
2023-04-01T03:37:12.078Z,40.22
2023-04-01T03:38:12.135Z,40.17
2023-04-01T03:39:12.108Z,40.18
2023-04-01T03:40:12.141Z,40.23
2023-04-01T03:41:12.148Z,40.15
2023-04-01T03:42:12.167Z,40.20
2023-04-01T03:43:12.213Z,40.13
2023-04-01T03:44:12.209Z,40.15
2023-04-01T03:45:12.217Z,40.14
2023-04-01T03:46:12.275Z,40.15
2023-04-01T03:47:12.266Z,40.15
2023-04-01T03:48:12.331Z,40.14
2023-04-01T03:49:13.261Z,40.14
2023-04-01T03:50:12.323Z,40.12
2023-04-01T03:51:12.419Z,40.08
2023-04-01T03:52:12.358Z,40.09
2023-04-01T03:53:12.375Z,40.10
2023-04-01T03:54:12.415Z,40.08
2023-04-01T03:55:12.428Z,40.08
2023-04-01T03:56:12.455Z,40.04
2023-04-01T03:57:12.478Z,40.07
2023-04-01T03:58:12.484Z,40.08
2023-04-01T03:59:12.517Z,40.08
2023-04-01T04:00:12.522Z,40.08
2023-04-01T04:01:12.533Z,40.07
2023-04-01T04:02:12.786Z,40.01
2023-04-01T04:03:12.642Z,39.98
2023-04-01T04:04:12.655Z,40.01
2023-04-01T04:05:12.625Z,40.00
2023-04-01T04:06:12.653Z,40.03
2023-04-01T04:07:12.678Z,40.01
2023-04-01T04:08:12.690Z,40.01
2023-04-01T04:09:12.710Z,40.04
2023-04-01T04:10:12.794Z,39.97
2023-04-01T04:11:12.775Z,39.99
2023-04-01T04:12:12.772Z,39.98
2023-04-01T04:13:12.803Z,39.95
2023-04-01T04:14:12.828Z,40.03
2023-04-01T04:15:12.889Z,40.00
2023-04-01T04:16:12.893Z,39.96
2023-04-01T04:17:12.882Z,39.95
2023-04-01T04:18:12.912Z,39.94
2023-04-01T04:19:12.926Z,39.95
2023-04-01T04:20:12.956Z,39.94
2023-04-01T04:21:12.971Z,39.90
2023-04-01T04:22:12.995Z,39.97
2023-04-01T04:23:13.022Z,39.91
2023-04-01T04:24:13.055Z,39.87
2023-04-01T04:25:13.271Z,39.94
2023-04-01T04:26:13.094Z,39.90
2023-04-01T04:27:13.227Z,39.90
2023-04-01T04:28:13.135Z,39.86
2023-04-01T04:29:13.150Z,39.84
2023-04-01T04:30:13.195Z,39.89
2023-04-01T04:31:13.259Z,39.84
2023-04-01T04:32:13.214Z,39.84
2023-04-01T04:33:13.290Z,39.84
2023-04-01T04:34:13.248Z,39.81
2023-04-01T04:35:13.272Z,39.84
2023-04-01T04:36:13.319Z,39.80
2023-04-01T04:37:13.306Z,39.85
2023-04-01T04:38:13.323Z,39.86
2023-04-01T04:39:13.345Z,39.80
2023-04-01T04:40:13.373Z,39.76
2023-04-01T04:41:13.386Z,39.80
2023-04-01T04:42:13.402Z,39.76
2023-04-01T04:43:13.426Z,39.77
2023-04-01T04:44:13.455Z,39.79
2023-04-01T04:45:13.482Z,39.76
2023-04-01T04:46:13.596Z,39.81
2023-04-01T04:47:13.643Z,39.79
2023-04-01T04:48:13.534Z,39.77
2023-04-01T04:49:13.562Z,39.80
2023-04-01T04:50:13.586Z,39.79
2023-04-01T04:51:13.612Z,39.76
2023-04-01T04:52:13.629Z,39.80
2023-04-01T04:53:13.648Z,39.74
2023-04-01T04:54:13.680Z,39.75
2023-04-01T04:55:13.695Z,39.76
2023-04-01T04:56:13.764Z,39.77
2023-04-01T04:57:13.735Z,39.76
2023-04-01T04:58:13.756Z,39.73
2023-04-01T04:59:13.794Z,39.74
2023-04-01T05:00:13.810Z,39.68
2023-04-01T05:01:14.828Z,39.71
2023-04-01T05:02:13.892Z,39.66
2023-04-01T05:03:13.963Z,39.66
2023-04-01T05:04:13.914Z,39.66
2023-04-01T05:05:13.914Z,39.62
2023-04-01T05:06:13.942Z,39.65
2023-04-01T05:07:13.959Z,39.67
2023-04-01T05:08:13.977Z,39.63
2023-04-01T05:09:14.012Z,39.62
2023-04-01T05:10:14.051Z,39.60
2023-04-01T05:11:14.114Z,39.65
2023-04-01T05:12:14.099Z,39.60
2023-04-01T05:13:14.098Z,39.58
2023-04-01T05:14:14.132Z,39.58
2023-04-01T05:15:14.153Z,39.62
2023-04-01T05:16:14.227Z,39.54
2023-04-01T05:17:14.202Z,39.56
2023-04-01T05:18:14.221Z,39.58
2023-04-01T05:19:14.254Z,39.59
2023-04-01T05:20:14.306Z,39.56
2023-04-01T05:21:14.328Z,39.56
2023-04-01T05:22:14.334Z,39.52
2023-04-01T05:23:14.361Z,39.54
2023-04-01T05:24:14.376Z,39.54
2023-04-01T05:25:14.397Z,39.49
2023-04-01T05:26:14.455Z,39.56
2023-04-01T05:27:14.460Z,39.51
2023-04-01T05:28:14.492Z,39.51
2023-04-01T05:29:14.520Z,39.54
2023-04-01T05:30:14.541Z,39.51
2023-04-01T05:31:14.636Z,39.52
2023-04-01T05:32:14.571Z,39.50
2023-04-01T05:33:14.596Z,39.52
2023-04-01T05:34:14.611Z,39.47
2023-04-01T05:35:14.623Z,39.48
2023-04-01T05:36:15.386Z,39.51
2023-04-01T05:37:14.687Z,39.48
2023-04-01T05:38:14.708Z,39.48
2023-04-01T05:39:14.733Z,39.48
2023-04-01T05:40:14.778Z,39.49
2023-04-01T05:41:14.796Z,39.44
2023-04-01T05:42:14.815Z,39.47
2023-04-01T05:43:14.840Z,39.48
2023-04-01T05:44:14.865Z,39.42
2023-04-01T05:45:14.894Z,39.44
2023-04-01T05:46:14.956Z,39.41
2023-04-01T05:47:15.304Z,39.43
2023-04-01T05:48:14.960Z,39.38
2023-04-01T05:49:15.000Z,39.37
2023-04-01T05:50:15.022Z,39.37
2023-04-01T05:51:15.031Z,39.33
2023-04-01T05:52:15.075Z,39.38
2023-04-01T05:53:15.102Z,39.33
2023-04-01T05:54:15.118Z,39.39
2023-04-01T05:55:15.156Z,39.37
2023-04-01T05:56:15.173Z,39.36
2023-04-01T05:57:15.233Z,39.41
2023-04-01T05:58:15.246Z,39.39
2023-04-01T05:59:15.258Z,39.38
2023-04-01T06:00:15.285Z,39.37
2023-04-01T06:01:16.399Z,39.38
2023-04-01T06:02:15.358Z,39.37
2023-04-01T06:03:15.409Z,39.37
2023-04-01T06:04:15.413Z,39.36
2023-04-01T06:05:15.424Z,39.38
2023-04-01T06:06:15.439Z,39.36
2023-04-01T06:07:15.473Z,39.28
2023-04-01T06:08:16.640Z,39.28
2023-04-01T06:09:15.529Z,39.31
2023-04-01T06:10:15.559Z,39.36
2023-04-01T06:11:15.600Z,39.31
2023-04-01T06:12:15.613Z,39.28
2023-04-01T06:13:15.649Z,39.28
2023-04-01T06:14:15.685Z,39.28
2023-04-01T06:15:15.705Z,39.21
2023-04-01T06:16:15.763Z,39.27
2023-04-01T06:17:15.767Z,39.25
2023-04-01T06:18:15.810Z,39.26
2023-04-01T06:19:15.821Z,39.23
2023-04-01T06:20:15.850Z,39.23
2023-04-01T06:21:15.886Z,39.22
2023-04-01T06:22:15.910Z,39.27
2023-04-01T06:23:15.929Z,39.24
2023-04-01T06:24:15.966Z,39.22
2023-04-01T06:25:15.992Z,39.21
2023-04-01T06:26:16.021Z,39.17
2023-04-01T06:27:16.118Z,39.19
2023-04-01T06:28:16.081Z,39.17
2023-04-01T06:29:16.099Z,39.22
2023-04-01T06:30:16.151Z,39.16
2023-04-01T06:31:16.229Z,39.18
2023-04-01T06:32:16.342Z,39.12
2023-04-01T06:33:16.235Z,39.08
2023-04-01T06:34:16.244Z,39.06
2023-04-01T06:35:16.287Z,39.07
2023-04-01T06:36:16.374Z,39.08
2023-04-01T06:37:16.345Z,39.07
2023-04-01T06:38:16.365Z,39.05
2023-04-01T06:39:16.404Z,39.00
2023-04-01T06:40:16.436Z,39.05
2023-04-01T06:41:16.453Z,39.02
2023-04-01T06:42:16.481Z,38.97
2023-04-01T06:43:16.536Z,38.96
2023-04-01T06:44:16.546Z,38.93
2023-04-01T06:45:16.577Z,38.94
2023-04-01T06:46:16.703Z,38.93
2023-04-01T06:47:16.631Z,38.94
2023-04-01T06:48:16.660Z,38.96
2023-04-01T06:49:16.696Z,38.95
2023-04-01T06:50:16.734Z,38.90
2023-04-01T06:51:16.750Z,38.92
2023-04-01T06:52:16.841Z,38.92
2023-04-01T06:53:16.810Z,38.86
2023-04-01T06:54:17.019Z,38.88
2023-04-01T06:55:16.861Z,38.93
2023-04-01T06:56:16.884Z,38.89
2023-04-01T06:57:16.953Z,38.87
2023-04-01T06:58:16.947Z,38.86
2023-04-01T06:59:16.973Z,38.86
2023-04-01T07:00:16.994Z,38.83
2023-04-01T07:01:17.083Z,38.81
2023-04-01T07:02:17.069Z,38.83
2023-04-01T07:03:17.078Z,38.82
2023-04-01T07:04:17.126Z,38.81
2023-04-01T07:05:17.239Z,38.82
2023-04-01T07:06:17.170Z,38.82
2023-04-01T07:07:17.204Z,38.81
2023-04-01T07:08:17.240Z,38.78
2023-04-01T07:09:17.267Z,38.76
2023-04-01T07:10:17.360Z,38.76
2023-04-01T07:11:17.310Z,38.74
2023-04-01T07:12:17.474Z,38.76
2023-04-01T07:13:18.320Z,38.72
2023-04-01T07:14:17.420Z,38.76
2023-04-01T07:15:17.537Z,38.74
2023-04-01T07:16:17.596Z,38.78
2023-04-01T07:17:17.533Z,38.76
2023-04-01T07:18:17.842Z,38.76
2023-04-01T07:19:17.564Z,38.72
2023-04-01T07:20:17.552Z,38.68
2023-04-01T07:21:17.580Z,38.66
2023-04-01T07:22:17.615Z,38.73
2023-04-01T07:23:17.639Z,38.72
2023-04-01T07:24:17.725Z,38.74
2023-04-01T07:25:17.726Z,38.69
2023-04-01T07:26:17.726Z,38.69
2023-04-01T07:27:17.749Z,38.70
2023-04-01T07:28:18.116Z,38.71
2023-04-01T07:29:18.045Z,38.72
2023-04-01T07:30:17.844Z,38.72
2023-04-01T07:31:17.901Z,38.69
2023-04-01T07:32:17.888Z,38.71
2023-04-01T07:33:17.909Z,38.67
2023-04-01T07:34:17.991Z,38.64
2023-04-01T07:35:17.954Z,38.62
2023-04-01T07:36:18.006Z,38.67
2023-04-01T07:37:18.012Z,38.63
2023-04-01T07:38:18.074Z,38.60
2023-04-01T07:39:18.073Z,38.65
2023-04-01T07:40:18.175Z,38.60
2023-04-01T07:41:18.308Z,38.51
2023-04-01T07:42:18.130Z,38.53
2023-04-01T07:43:18.192Z,38.56
2023-04-01T07:44:18.177Z,38.53
2023-04-01T07:45:18.229Z,38.50
2023-04-01T07:46:18.284Z,38.55
2023-04-01T07:47:18.266Z,38.51
2023-04-01T07:48:18.281Z,38.55
2023-04-01T07:49:18.347Z,38.50
2023-04-01T07:50:18.353Z,38.53
2023-04-01T07:51:18.366Z,38.51
2023-04-01T07:52:18.399Z,38.51
2023-04-01T07:53:18.418Z,38.53
2023-04-01T07:54:18.444Z,38.53
2023-04-01T07:55:18.473Z,38.51
2023-04-01T07:56:18.503Z,38.51
2023-04-01T07:57:18.586Z,38.50
2023-04-01T07:58:18.572Z,38.45
2023-04-01T07:59:18.580Z,38.52
2023-04-01T08:00:18.614Z,38.55
2023-04-01T08:01:18.636Z,38.54
2023-04-01T08:02:18.805Z,38.50
2023-04-01T08:03:18.725Z,38.51
2023-04-01T08:04:18.851Z,38.49
2023-04-01T08:05:18.749Z,38.50
2023-04-01T08:06:18.822Z,38.54
2023-04-01T08:07:18.787Z,38.50
2023-04-01T08:08:18.826Z,38.52
2023-04-01T08:09:18.845Z,38.47
2023-04-01T08:10:18.871Z,38.47
2023-04-01T08:11:18.889Z,38.46
2023-04-01T08:12:18.907Z,38.42
2023-04-01T08:13:18.934Z,38.45
2023-04-01T08:14:18.949Z,38.44
2023-04-01T08:15:18.980Z,38.46
2023-04-01T08:16:19.055Z,38.41
2023-04-01T08:17:19.073Z,38.35
2023-04-01T08:18:19.049Z,38.37
2023-04-01T08:19:19.074Z,38.31
2023-04-01T08:20:19.130Z,38.29
2023-04-01T08:21:19.127Z,38.29
2023-04-01T08:22:19.152Z,38.31
2023-04-01T08:23:19.188Z,38.28
2023-04-01T08:24:21.430Z,38.28
2023-04-01T08:25:19.209Z,38.30
2023-04-01T08:26:19.866Z,38.29
2023-04-01T08:27:19.204Z,38.27
2023-04-01T08:28:19.190Z,38.25
2023-04-01T08:29:19.193Z,38.22
2023-04-01T08:30:19.201Z,38.18
2023-04-01T08:31:19.217Z,38.24
2023-04-01T08:32:19.209Z,38.15
2023-04-01T08:33:19.193Z,38.18
2023-04-01T08:34:19.212Z,38.08
2023-04-01T08:35:19.197Z,38.10
2023-04-01T08:36:19.236Z,38.07
2023-04-01T08:37:19.193Z,38.06
2023-04-01T08:38:19.184Z,38.05
2023-04-01T08:39:19.194Z,38.03
2023-04-01T08:40:19.195Z,37.97
2023-04-01T08:41:19.186Z,37.98
2023-04-01T08:42:19.192Z,37.97
2023-04-01T08:43:19.196Z,38.06
2023-04-01T08:44:19.203Z,37.97
2023-04-01T08:45:19.200Z,37.98
2023-04-01T08:46:19.249Z,37.97
2023-04-01T08:47:19.849Z,37.94
2023-04-01T08:48:19.191Z,37.97
2023-04-01T08:49:19.196Z,37.94
2023-04-01T08:50:19.295Z,37.98
2023-04-01T08:51:19.195Z,37.94
2023-04-01T08:52:19.219Z,37.94
2023-04-01T08:53:19.215Z,37.92
2023-04-01T08:54:19.214Z,37.93
2023-04-01T08:55:19.213Z,37.88
2023-04-01T08:56:19.206Z,37.89
2023-04-01T08:57:19.270Z,37.89
2023-04-01T08:58:19.235Z,37.85
2023-04-01T08:59:19.242Z,37.82
2023-04-01T09:00:19.228Z,37.88
2023-04-01T09:01:19.225Z,37.89
2023-04-01T09:02:19.280Z,37.89
2023-04-01T09:03:19.319Z,37.84
2023-04-01T09:04:19.268Z,37.86
2023-04-01T09:05:19.241Z,37.83
2023-04-01T09:06:19.256Z,37.81
2023-04-01T09:07:19.254Z,37.81
2023-04-01T09:08:19.247Z,37.84
2023-04-01T09:09:19.281Z,37.82
2023-04-01T09:10:19.265Z,37.83
2023-04-01T09:11:19.262Z,37.79
2023-04-01T09:12:19.266Z,37.74
2023-04-01T09:13:19.276Z,37.74
2023-04-01T09:14:19.262Z,37.75
2023-04-01T09:15:19.273Z,37.73
2023-04-01T09:16:19.312Z,37.72
2023-04-01T09:17:19.263Z,37.64
2023-04-01T09:18:19.271Z,37.63
2023-04-01T09:19:19.262Z,37.66
2023-04-01T09:20:19.346Z,37.66
2023-04-01T09:21:19.259Z,37.68
2023-04-01T09:22:19.318Z,37.71
2023-04-01T09:23:19.246Z,37.73
2023-04-01T09:24:19.262Z,37.73
2023-04-01T09:25:19.282Z,37.70
2023-04-01T09:26:19.267Z,37.72
2023-04-01T09:27:19.253Z,37.73
2023-04-01T09:28:19.258Z,37.73
2023-04-01T09:29:19.251Z,37.75
2023-04-01T09:30:19.341Z,37.71
2023-04-01T09:31:19.302Z,37.70
2023-04-01T09:32:19.247Z,37.70
2023-04-01T09:33:19.242Z,37.65
2023-04-01T09:34:19.231Z,37.63
2023-04-01T09:35:19.240Z,37.68
2023-04-01T09:36:19.257Z,37.66
2023-04-01T09:37:19.235Z,37.63
2023-04-01T09:38:19.242Z,37.67
2023-04-01T09:39:19.211Z,37.65
2023-04-01T09:40:19.269Z,37.61
2023-04-01T09:41:19.211Z,37.63
2023-04-01T09:42:19.201Z,37.55
2023-04-01T09:43:19.232Z,37.57
2023-04-01T09:44:19.249Z,37.52
2023-04-01T09:45:19.277Z,37.48
2023-04-01T09:46:19.323Z,37.53
2023-04-01T09:47:19.303Z,37.48
2023-04-01T09:48:19.320Z,37.52
2023-04-01T09:49:19.335Z,37.51
2023-04-01T09:50:19.375Z,37.47
2023-04-01T09:51:19.383Z,37.48
2023-04-01T09:52:19.410Z,37.41
2023-04-01T09:53:19.441Z,37.42
2023-04-01T09:54:19.455Z,37.36
2023-04-01T09:55:19.541Z,37.49
2023-04-01T09:56:19.508Z,37.41
2023-04-01T09:57:19.543Z,37.42
2023-04-01T09:58:19.534Z,37.42
2023-04-01T09:59:19.565Z,37.40
2023-04-01T10:00:19.886Z,37.40
2023-04-01T10:01:19.656Z,37.36
2023-04-01T10:02:19.613Z,37.39
2023-04-01T10:03:19.637Z,37.41
2023-04-01T10:04:19.661Z,37.37
2023-04-01T10:05:19.739Z,37.37
2023-04-01T10:06:19.706Z,37.41
2023-04-01T10:07:19.725Z,37.47
2023-04-01T10:08:19.768Z,37.41
2023-04-01T10:09:19.775Z,37.42
2023-04-01T10:10:19.795Z,37.37
2023-04-01T10:11:19.825Z,37.36
2023-04-01T10:12:19.876Z,37.31
2023-04-01T10:13:19.885Z,37.29
2023-04-01T10:14:19.969Z,37.34
2023-04-01T10:15:20.056Z,37.31
2023-04-01T10:16:20.025Z,37.33
2023-04-01T10:17:19.975Z,37.39
2023-04-01T10:18:19.994Z,37.33
2023-04-01T10:19:20.028Z,37.30
2023-04-01T10:20:20.049Z,37.32
2023-04-01T10:21:20.111Z,37.35
2023-04-01T10:22:20.097Z,37.35
2023-04-01T10:23:20.131Z,37.39
2023-04-01T10:24:20.163Z,37.38
2023-04-01T10:25:20.186Z,37.39
2023-04-01T10:26:20.215Z,37.42
2023-04-01T10:27:20.249Z,37.38
2023-04-01T10:28:20.287Z,37.36
2023-04-01T10:29:20.296Z,37.34
2023-04-01T10:30:20.316Z,37.38
2023-04-01T10:31:20.360Z,37.33
2023-04-01T10:32:20.375Z,37.33
2023-04-01T10:33:20.385Z,37.33
2023-04-01T10:34:20.429Z,37.30
2023-04-01T10:35:20.440Z,37.28
2023-04-01T10:36:20.508Z,37.27
2023-04-01T10:37:20.509Z,37.26
2023-04-01T10:38:20.519Z,37.27
2023-04-01T10:39:20.540Z,37.26
2023-04-01T10:40:20.606Z,37.23
2023-04-01T10:41:20.592Z,37.20
2023-04-01T10:42:20.632Z,37.23
2023-04-01T10:43:20.733Z,37.20
2023-04-01T10:44:20.700Z,37.23
2023-04-01T10:45:20.726Z,37.19
2023-04-01T10:46:20.804Z,37.19
2023-04-01T10:47:20.797Z,37.13
2023-04-01T10:48:20.804Z,37.15
2023-04-01T10:49:20.850Z,37.15
2023-04-01T10:50:20.832Z,37.13
2023-04-01T10:51:20.859Z,37.12
2023-04-01T10:52:20.867Z,37.12
2023-04-01T10:53:20.890Z,37.11
2023-04-01T10:54:21.252Z,37.09
2023-04-01T10:55:20.952Z,37.09
2023-04-01T10:56:20.963Z,37.02
2023-04-01T10:57:21.015Z,36.99
2023-04-01T10:58:21.060Z,37.01
2023-04-01T10:59:21.031Z,36.99
2023-04-01T11:00:21.056Z,36.99
2023-04-01T11:01:21.087Z,36.98
2023-04-01T11:02:21.154Z,36.98
2023-04-01T11:03:21.175Z,36.93
2023-04-01T11:04:21.094Z,36.95
2023-04-01T11:05:21.385Z,36.92
2023-04-01T11:06:21.174Z,36.94
2023-04-01T11:07:21.134Z,36.88
2023-04-01T11:08:21.140Z,36.87
2023-04-01T11:09:21.166Z,36.89
2023-04-01T11:10:21.196Z,36.90
2023-04-01T11:11:21.221Z,36.85
2023-04-01T11:12:21.890Z,36.84
2023-04-01T11:13:21.207Z,36.85
2023-04-01T11:14:21.212Z,36.82
2023-04-01T11:15:21.233Z,36.83
2023-04-01T11:16:21.282Z,36.83
2023-04-01T11:17:21.299Z,36.80
2023-04-01T11:18:21.257Z,36.80
2023-04-01T11:19:21.275Z,36.79
2023-04-01T11:20:21.289Z,36.76
2023-04-01T11:21:21.304Z,36.75
2023-04-01T11:22:21.321Z,36.75
2023-04-01T11:23:21.336Z,36.70
2023-04-01T11:24:21.355Z,36.71
2023-04-01T11:25:21.346Z,36.72
2023-04-01T11:26:21.362Z,36.70
2023-04-01T11:27:21.442Z,36.68
2023-04-01T11:28:21.392Z,36.69
2023-04-01T11:29:21.410Z,36.66
2023-04-01T11:30:21.431Z,36.66
2023-04-01T11:31:21.496Z,36.66
2023-04-01T11:32:21.533Z,36.70
2023-04-01T11:33:21.531Z,36.65
2023-04-01T11:34:21.495Z,36.69
2023-04-01T11:35:21.512Z,36.62
2023-04-01T11:36:21.566Z,36.65
2023-04-01T11:37:21.564Z,36.68
2023-04-01T11:38:21.578Z,36.67
2023-04-01T11:39:21.611Z,36.59
2023-04-01T11:40:21.621Z,36.60
2023-04-01T11:41:21.644Z,36.66
2023-04-01T11:42:21.664Z,36.60
2023-04-01T11:43:32.369Z,36.56
2023-04-01T11:44:22.676Z,36.58
2023-04-01T11:45:21.672Z,36.56
2023-04-01T11:46:21.744Z,36.55
2023-04-01T11:47:21.887Z,36.56
2023-04-01T11:48:21.688Z,36.56
2023-04-01T11:49:21.681Z,36.56
2023-04-01T11:50:21.684Z,36.53
2023-04-01T11:51:21.673Z,36.57
2023-04-01T11:52:21.685Z,36.52
2023-04-01T11:53:21.683Z,36.51
2023-04-01T11:54:21.694Z,36.52
2023-04-01T11:55:21.695Z,36.52
2023-04-01T11:56:21.706Z,36.54
2023-04-01T11:57:21.811Z,36.53
2023-04-01T11:58:21.784Z,36.51
2023-04-01T11:59:21.785Z,36.47
2023-04-01T12:00:21.704Z,36.52
2023-04-01T12:01:21.716Z,36.51
2023-04-01T12:02:21.803Z,36.52
2023-04-01T12:03:22.565Z,36.48
2023-04-01T12:04:21.803Z,36.48
2023-04-01T12:05:21.721Z,36.52
2023-04-01T12:06:21.726Z,36.55
2023-04-01T12:07:21.722Z,36.49
2023-04-01T12:08:21.715Z,36.50
2023-04-01T12:09:21.721Z,36.50
2023-04-01T12:10:21.792Z,36.50
2023-04-01T12:11:21.735Z,36.49
2023-04-01T12:12:21.737Z,36.38
2023-04-01T12:13:21.759Z,36.48
2023-04-01T12:14:21.788Z,36.44
2023-04-01T12:15:21.805Z,36.35
2023-04-01T12:16:21.883Z,36.34
2023-04-01T12:17:21.844Z,36.35
2023-04-01T12:18:21.843Z,36.42
2023-04-01T12:19:21.865Z,36.36
2023-04-01T12:20:21.894Z,36.32
2023-04-01T12:21:21.917Z,36.45
2023-04-01T12:22:21.954Z,36.48
2023-04-01T12:23:21.963Z,36.41
2023-04-01T12:24:21.988Z,36.35
2023-04-01T12:25:22.030Z,36.27
2023-04-01T12:26:22.055Z,36.41
2023-04-01T12:27:22.063Z,36.41
2023-04-01T12:28:22.093Z,36.28
2023-04-01T12:29:22.088Z,36.33
2023-04-01T12:30:22.144Z,36.20
2023-04-01T12:31:22.132Z,36.32
2023-04-01T12:32:22.186Z,36.32
2023-04-01T12:33:22.163Z,36.27
2023-04-01T12:34:22.189Z,36.28
2023-04-01T12:35:22.398Z,36.26
2023-04-01T12:36:22.257Z,36.26
2023-04-01T12:37:22.268Z,36.28
2023-04-01T12:38:22.361Z,36.18
2023-04-01T12:39:22.327Z,36.16
2023-04-01T12:40:22.329Z,36.27
2023-04-01T12:41:22.355Z,36.36
2023-04-01T12:42:22.383Z,36.25
2023-04-01T12:43:22.404Z,36.26
2023-04-01T12:44:22.424Z,36.27
2023-04-01T12:45:22.466Z,36.28
2023-04-01T12:46:22.502Z,36.28
2023-04-01T12:47:22.579Z,36.19
2023-04-01T12:48:22.551Z,36.31
2023-04-01T12:49:22.548Z,36.24
2023-04-01T12:50:23.451Z,36.16
2023-04-01T12:51:22.594Z,36.11
2023-04-01T12:52:22.613Z,36.18